Time;durP1;ratioP1;P1;durP2;ratioP2;P2;SDS_P1;SDS_P2;PMS_P1;PMS_P2;Temp;Humidity;BMP_temperature;BMP_pressure;BME280_temperature;BME280_humidity;BME280_pressure;Samples;Min_cycle;Max_cycle;Signal;HPM_P1;HPM_P2
2023/10/03 00:01:05;;;;;;;4.75;4.38;;;22.00;77.00;;;;;;5097086;28;20462;-77
2023/10/03 00:03:30;;;;;;;4.85;4.55;;;22.00;77.10;;;;;;5095615;28;20501;-78
2023/10/03 00:05:56;;;;;;;4.50;4.30;;;22.00;77.80;;;;;;5093459;28;20585;-78
2023/10/03 00:08:22;;;;;;;4.50;4.20;;;22.00;77.00;;;;;;5108323;27;20036;-78
2023/10/03 00:10:48;;;;;;;5.00;4.70;;;22.00;77.00;;;;;;5097641;28;20061;-78
2023/10/03 00:13:15;;;;;;;5.10;4.80;;;22.00;77.10;;;;;;5079367;28;20040;-79
2023/10/03 00:15:44;;;;;;;5.18;4.78;;;22.00;77.00;;;;;;5100200;28;20402;-78
2023/10/03 00:18:13;;;;;;;4.30;4.10;;;22.00;77.10;;;;;;5092470;28;20116;-77
2023/10/03 00:20:39;;;;;;;4.43;4.22;;;22.00;77.10;;;;;;5093596;28;20049;-78
2023/10/03 00:23:05;;;;;;;5.18;4.88;;;22.10;77.10;;;;;;5105159;27;20046;-78
2023/10/03 00:25:31;;;;;;;5.05;4.75;;;22.00;77.10;;;;;;5082402;28;20044;-78
2023/10/03 00:28:00;;;;;;;3.95;3.75;;;22.00;77.90;;;;;;5078996;28;20039;-78
2023/10/03 00:30:25;;;;;;;4.32;4.13;;;22.00;77.10;;;;;;5075773;28;20036;-78
2023/10/03 00:32:54;;;;;;;4.10;3.90;;;22.00;77.10;;;;;;5095408;28;20048;-78
2023/10/03 00:35:20;;;;;;;4.90;4.60;;;22.00;77.20;;;;;;5110351;27;20040;-79
2023/10/03 00:37:47;;;;;;;4.80;4.50;;;22.00;77.20;;;;;;5101693;28;20042;-78
2023/10/03 00:40:27;;;;;;;4.28;4.07;;;22.00;77.20;;;;;;5091079;28;20048;-78
2023/10/03 00:42:59;;;;;;;4.70;4.40;;;22.00;77.20;;;;;;5093814;28;20046;-78
2023/10/03 00:45:29;;;;;;;4.50;4.20;;;22.00;77.20;;;;;;5091906;28;20044;-78
2023/10/03 00:47:55;;;;;;;4.57;4.28;;;22.00;77.10;;;;;;5092178;28;20068;-78
2023/10/03 00:50:28;;;;;;;3.92;3.72;;;22.00;77.20;;;;;;5095344;28;20696;-78
2023/10/03 00:53:04;;;;;;;3.95;3.75;;;22.00;77.20;;;;;;5093405;28;20062;-78
2023/10/03 00:55:32;;;;;;;4.32;4.13;;;22.00;77.30;;;;;;5108881;27;20522;-78
2023/10/03 01:00:43;;;;;;;4.35;4.00;;;22.00;77.30;;;;;;5080381;28;20123;-78
2023/10/03 01:03:31;;;;;;;4.00;3.80;;;22.00;77.40;;;;;;5073615;28;20059;-78
2023/10/03 01:05:58;;;;;;;4.45;4.18;;;22.00;77.80;;;;;;5094665;28;20422;-78
2023/10/03 01:08:24;;;;;;;3.53;3.33;;;22.00;77.40;;;;;;5092422;28;20059;-78
2023/10/03 01:10:51;;;;;;;4.15;3.95;;;22.00;77.50;;;;;;5091113;28;20052;-78
2023/10/03 01:13:19;;;;;;;3.78;3.58;;;22.00;77.50;;;;;;5089822;28;20051;-79
2023/10/03 01:15:49;;;;;;;4.30;4.10;;;22.00;77.50;;;;;;5072448;28;20040;-78
2023/10/03 01:18:17;;;;;;;3.92;3.72;;;22.00;77.50;;;;;;5095911;27;20584;-78
2023/10/03 01:20:48;;;;;;;4.28;3.97;;;22.00;77.50;;;;;;5108382;27;20044;-78
2023/10/03 01:23:15;;;;;;;3.90;3.70;;;22.00;77.50;;;;;;5095818;28;20097;-78
2023/10/03 01:25:44;;;;;;;4.30;4.00;;;21.90;77.50;;;;;;5099077;28;20043;-78
2023/10/03 01:28:12;;;;;;;3.80;3.60;;;22.00;77.60;;;;;;5082880;28;20032;-78
2023/10/03 01:30:40;;;;;;;3.85;3.65;;;22.00;77.50;;;;;;5084904;28;20958;-78
2023/10/03 01:33:06;;;;;;;3.60;3.40;;;21.90;77.60;;;;;;5090011;28;20032;-78
2023/10/03 01:35:32;;;;;;;3.70;3.50;;;21.90;77.60;;;;;;5065285;28;20043;-78
2023/10/03 01:37:57;;;;;;;3.83;3.63;;;21.90;77.60;;;;;;5104356;27;20497;-78
2023/10/03 01:40:23;;;;;;;3.85;3.63;;;21.90;77.60;;;;;;5092045;28;20055;-79
2023/10/03 01:42:49;;;;;;;3.13;2.92;;;22.00;77.70;;;;;;5090093;28;20538;-78
2023/10/03 01:45:23;;;;;;;3.55;3.35;;;21.90;77.60;;;;;;5094755;28;20052;-78
2023/10/03 01:47:52;;;;;;;3.75;3.55;;;22.00;77.70;;;;;;5088276;28;20052;-78
2023/10/03 01:50:21;;;;;;;3.88;3.45;;;21.90;77.70;;;;;;5089738;28;20044;-77
2023/10/03 01:52:47;;;;;;;3.22;3.03;;;21.90;77.60;;;;;;5093161;28;20123;-78
2023/10/03 01:55:20;;;;;;;3.38;3.22;;;21.90;77.70;;;;;;5093364;28;20055;-78
2023/10/03 01:57:47;;;;;;;3.30;3.10;;;22.00;77.70;;;;;;5087041;28;20043;-77
2023/10/03 02:00:24;;;;;;;3.08;2.88;;;21.90;77.70;;;;;;5090912;28;20063;-78
2023/10/03 02:02:53;;;;;;;3.28;3.13;;;21.90;77.60;;;;;;5088973;28;20090;-78
2023/10/03 02:05:21;;;;;;;3.75;3.55;;;22.00;77.80;;;;;;5083464;28;20072;-79
2023/10/03 02:07:47;;;;;;;3.30;3.10;;;21.90;77.60;;;;;;5093383;28;20039;-78
2023/10/03 02:10:13;;;;;;;3.15;2.95;;;21.90;77.70;;;;;;5087837;28;20412;-78
2023/10/03 02:12:41;;;;;;;3.30;3.10;;;21.90;77.70;;;;;;5077330;28;20068;-79
2023/10/03 02:15:09;;;;;;;3.97;3.65;;;21.90;77.70;;;;;;5090464;28;20051;-78
2023/10/03 02:17:35;;;;;;;3.40;3.20;;;21.90;77.70;;;;;;5089911;28;20070;-78
2023/10/03 02:20:01;;;;;;;4.00;3.80;;;21.90;77.70;;;;;;5084771;28;20086;-78
2023/10/03 02:22:27;;;;;;;3.33;3.13;;;21.90;77.70;;;;;;5072663;28;20100;-79
2023/10/03 02:24:52;;;;;;;3.20;3.08;;;22.00;77.80;;;;;;5090933;28;20126;-78
2023/10/03 02:27:18;;;;;;;3.40;3.20;;;21.90;77.70;;;;;;5089458;28;20120;-78
2023/10/03 02:29:44;;;;;;;3.20;3.00;;;22.00;77.80;;;;;;5088671;28;20036;-78
2023/10/03 02:32:11;;;;;;;2.63;2.53;;;21.90;77.80;;;;;;5081437;28;20047;-78
2023/10/03 02:34:37;;;;;;;2.95;2.70;;;21.90;77.70;;;;;;5093935;28;20414;-78
2023/10/03 02:37:03;;;;;;;3.10;2.90;;;22.00;77.80;;;;;;5088195;28;20039;-78
2023/10/03 02:39:35;;;;;;;2.80;2.70;;;21.90;77.80;;;;;;5089351;28;20028;-78
2023/10/03 02:42:01;;;;;;;2.92;2.83;;;21.90;77.70;;;;;;5091117;28;20513;-78
2023/10/03 02:44:27;;;;;;;2.90;2.80;;;22.00;77.80;;;;;;5090158;28;20080;-78
2023/10/03 02:46:53;;;;;;;2.60;2.50;;;21.90;77.80;;;;;;5098011;28;20498;-78
2023/10/03 02:49:18;;;;;;;2.80;2.60;;;21.90;77.80;;;;;;5091818;28;20046;-78
2023/10/03 02:51:44;;;;;;;3.38;3.17;;;21.90;77.80;;;;;;5092111;28;20083;-78
2023/10/03 02:54:10;;;;;;;2.92;2.83;;;21.90;77.80;;;;;;5093039;28;20043;-78
2023/10/03 02:56:35;;;;;;;2.78;2.67;;;21.90;77.80;;;;;;5091970;28;20046;-78
2023/10/03 02:59:02;;;;;;;2.50;2.40;;;21.90;77.70;;;;;;5088543;28;20040;-78
2023/10/03 03:01:31;;;;;;;2.75;2.55;;;22.00;78.60;;;;;;5086275;28;20046;-78
2023/10/03 03:03:56;;;;;;;2.38;2.28;;;22.00;77.80;;;;;;5083563;28;20046;-78
2023/10/03 03:06:22;;;;;;;3.08;2.90;;;22.00;77.80;;;;;;5092474;28;20044;-80
2023/10/03 03:08:48;;;;;;;2.70;2.60;;;22.00;78.60;;;;;;5090254;28;20055;-78
2023/10/03 03:11:16;;;;;;;3.00;2.90;;;21.90;77.80;;;;;;5090195;28;20040;-78
2023/10/03 03:13:42;;;;;;;2.92;2.80;;;21.90;78.60;;;;;;5095329;28;20055;-78
2023/10/03 03:16:11;;;;;;;2.85;2.60;;;22.00;78.60;;;;;;5087610;28;20531;-78
2023/10/03 03:18:40;;;;;;;3.10;2.90;;;21.90;77.80;;;;;;5061028;28;20036;-78
2023/10/03 03:21:20;;;;;;;2.55;2.45;;;21.90;77.80;;;;;;5076806;28;20097;-78
2023/10/03 03:23:56;;;;;;;2.92;2.83;;;22.00;77.90;;;;;;5088621;28;20130;-78
2023/10/03 03:26:27;;;;;;;2.70;2.60;;;22.00;77.80;;;;;;5092120;28;20098;-78
2023/10/03 03:28:54;;;;;;;2.80;2.70;;;21.90;77.80;;;;;;5097033;28;20443;-78
2023/10/03 03:33:49;;;;;;;3.08;2.88;;;21.90;77.70;;;;;;5085625;28;20052;-78
2023/10/03 03:36:18;;;;;;;2.58;2.47;;;21.90;77.80;;;;;;5088178;28;20047;-78
2023/10/03 03:38:45;;;;;;;2.70;2.60;;;21.90;77.80;;;;;;5092596;28;20078;-78
2023/10/03 03:41:12;;;;;;;2.65;2.55;;;21.90;77.80;;;;;;5100483;28;20067;-78
2023/10/03 03:43:38;;;;;;;2.47;2.38;;;21.90;77.90;;;;;;5094697;28;20142;-78
2023/10/03 03:46:04;;;;;;;2.78;2.67;;;21.90;77.80;;;;;;5091659;28;20097;-78
2023/10/03 03:48:33;;;;;;;2.88;2.67;;;21.90;77.80;;;;;;5091238;28;20481;-78
2023/10/03 03:51:06;;;;;;;2.53;2.42;;;21.90;77.80;;;;;;5091827;28;20036;-77
2023/10/03 03:53:31;;;;;;;2.30;2.20;;;21.90;77.80;;;;;;5095358;28;20051;-78
2023/10/03 03:55:58;;;;;;;2.67;2.58;;;21.90;77.80;;;;;;5098295;28;20047;-77
2023/10/03 03:58:24;;;;;;;2.80;2.60;;;21.90;77.80;;;;;;5089086;28;20028;-77
2023/10/03 04:00:52;;;;;;;2.95;2.72;;;21.90;77.80;;;;;;5100795;28;20045;-77
2023/10/03 04:03:19;;;;;;;2.70;2.50;;;21.90;77.80;;;;;;5093809;28;20624;-78
2023/10/03 04:05:49;;;;;;;3.05;2.95;;;21.90;77.80;;;;;;5104596;27;20101;-77
2023/10/03 04:08:15;;;;;;;2.80;2.30;;;21.90;77.70;;;;;;5081915;28;20043;-78
2023/10/03 04:10:43;;;;;;;2.17;2.05;;;21.90;77.70;;;;;;5067014;28;20126;-78
2023/10/03 04:13:10;;;;;;;2.50;2.40;;;21.90;77.70;;;;;;5095652;28;20048;-78
2023/10/03 04:15:39;;;;;;;2.13;1.92;;;21.90;77.80;;;;;;5088011;28;20058;-78
2023/10/03 04:18:05;;;;;;;2.28;2.17;;;21.90;77.80;;;;;;5093096;28;20073;-78
2023/10/03 04:20:31;;;;;;;2.30;2.20;;;21.90;77.70;;;;;;5092832;28;20031;-77
2023/10/03 04:23:00;;;;;;;2.13;2.03;;;21.90;77.80;;;;;;5094630;28;20051;-77
2023/10/03 04:25:26;;;;;;;2.17;2.08;;;21.90;77.70;;;;;;5075859;28;20044;-77
2023/10/03 04:27:53;;;;;;;2.05;1.95;;;21.90;77.70;;;;;;5088823;28;20611;-78
2023/10/03 04:30:25;;;;;;;2.65;2.55;;;21.90;77.80;;;;;;5087940;28;20035;-77
2023/10/03 04:32:51;;;;;;;2.03;1.92;;;21.90;77.70;;;;;;5092558;28;20452;-78
2023/10/03 04:35:18;;;;;;;2.72;2.47;;;21.90;77.70;;;;;;5091506;28;20501;-77
2023/10/03 04:37:44;;;;;;;2.30;2.20;;;21.90;77.60;;;;;;5072277;28;20044;-78
2023/10/03 04:40:15;;;;;;;2.00;1.90;;;21.90;77.70;;;;;;5090006;28;20020;-78
2023/10/03 04:42:43;;;;;;;2.30;2.20;;;21.90;77.70;;;;;;5087975;28;20047;-77
2023/10/03 04:45:10;;;;;;;2.28;2.13;;;21.90;77.70;;;;;;5081761;28;20051;-78
2023/10/03 04:47:41;;;;;;;2.80;2.60;;;21.90;77.70;;;;;;5087886;28;20044;-78
2023/10/03 04:50:07;;;;;;;2.15;2.05;;;21.90;77.70;;;;;;5072079;28;20047;-77
2023/10/03 04:52:33;;;;;;;1.95;1.85;;;21.90;77.60;;;;;;5083617;28;20145;-78
2023/10/03 04:54:59;;;;;;;2.42;2.28;;;21.90;77.60;;;;;;5093526;28;20494;-78
2023/10/03 04:57:27;;;;;;;2.20;2.10;;;21.90;77.60;;;;;;5090929;28;20043;-77
2023/10/03 04:59:56;;;;;;;2.05;1.95;;;21.90;77.60;;;;;;5094713;27;20047;-77
2023/10/03 05:02:22;;;;;;;2.20;2.10;;;21.90;77.60;;;;;;5087698;28;20049;-78
2023/10/03 05:04:48;;;;;;;2.03;1.92;;;21.90;77.60;;;;;;5092660;28;20070;-80
2023/10/03 05:07:13;;;;;;;1.92;1.83;;;21.90;77.50;;;;;;5086512;28;20692;-80
2023/10/03 05:09:39;;;;;;;3.38;2.05;;;21.90;77.50;;;;;;5092448;28;20047;-79
2023/10/03 05:12:04;;;;;;;1.90;1.80;;;21.90;77.60;;;;;;5085479;28;20036;-79
2023/10/03 05:14:30;;;;;;;1.60;1.50;;;21.90;77.60;;;;;;5082802;28;20044;-81
2023/10/03 05:17:00;;;;;;;1.60;1.50;;;21.90;77.60;;;;;;5080510;28;20498;-80
2023/10/03 05:19:25;;;;;;;1.75;1.65;;;21.90;77.60;;;;;;5081173;28;20040;-77
2023/10/03 05:21:52;;;;;;;1.65;1.55;;;21.90;77.70;;;;;;5099305;27;20094;-80
2023/10/03 05:24:19;;;;;;;2.55;2.22;;;21.90;77.70;;;;;;5088264;28;20116;-79
2023/10/03 05:26:44;;;;;;;2.05;1.95;;;21.90;77.60;;;;;;4726229;28;9999777;-80
2023/10/03 05:29:10;;;;;;;1.80;1.70;;;21.90;77.60;;;;;;5075092;28;20055;-80
2023/10/03 05:31:40;;;;;;;2.17;1.98;;;22.00;77.60;;;;;;5075207;28;20102;-79
2023/10/03 05:34:07;;;;;;;1.95;1.70;;;21.90;77.30;;;;;;5047860;28;20048;-79
2023/10/03 05:36:32;;;;;;;1.65;1.55;;;21.90;76.90;;;;;;5079798;28;20044;-81
2023/10/03 05:38:58;;;;;;;1.90;1.80;;;21.90;76.90;;;;;;5092580;28;20055;-80
2023/10/03 05:41:23;;;;;;;1.80;1.70;;;21.90;76.90;;;;;;5088904;28;20123;-80
2023/10/03 05:43:49;;;;;;;1.90;1.80;;;21.90;76.30;;;;;;4722169;28;9999755;-81
2023/10/03 05:46:15;;;;;;;3.88;2.30;;;21.90;74.10;;;;;;5078055;28;20048;-81
2023/10/03 05:48:42;;;;;;;2.33;2.00;;;21.80;73.10;;;;;;5098000;27;20035;-79
2023/10/03 05:51:08;;;;;;;2.20;1.98;;;21.80;71.90;;;;;;5081504;28;20520;-81
2023/10/03 05:53:34;;;;;;;2.28;1.95;;;21.70;71.70;;;;;;5076430;28;20044;-81
2023/10/03 05:56:00;;;;;;;2.47;2.28;;;21.60;71.70;;;;;;5108716;27;20035;-80
2023/10/03 05:58:27;;;;;;;3.13;2.28;;;21.60;71.30;;;;;;5107425;27;20044;-80
2023/10/03 06:00:52;;;;;;;2.80;2.03;;;21.60;71.00;;;;;;5086619;28;20572;-79
2023/10/03 06:03:18;;;;;;;2.40;2.20;;;21.60;70.90;;;;;;5086184;28;21921;-80
2023/10/03 06:05:45;;;;;;;2.63;2.22;;;21.50;70.50;;;;;;5102907;27;20509;-80
2023/10/03 06:08:12;;;;;;;2.55;2.22;;;21.50;70.30;;;;;;5053842;28;20047;-79
2023/10/03 06:10:41;;;;;;;2.45;2.15;;;21.50;71.20;;;;;;5074271;28;20047;-80
2023/10/03 06:13:10;;;;;;;2.63;2.42;;;21.50;69.80;;;;;;5105079;27;20052;-79
2023/10/03 06:15:37;;;;;;;3.03;2.50;;;21.40;69.60;;;;;;5091717;28;20035;-80
2023/10/03 06:18:04;;;;;;;2.40;1.92;;;21.40;70.00;;;;;;5087486;28;20040;-78
2023/10/03 06:20:30;;;;;;;2.50;2.30;;;21.40;69.60;;;;;;5081501;28;20056;-79
2023/10/03 06:22:56;;;;;;;2.53;2.20;;;21.40;69.60;;;;;;5074030;28;20043;-79
2023/10/03 06:25:23;;;;;;;2.22;2.03;;;21.40;69.40;;;;;;5102733;27;20078;-79
2023/10/03 06:27:48;;;;;;;2.17;2.00;;;21.40;69.40;;;;;;5068101;28;20102;-79
2023/10/03 06:30:14;;;;;;;3.08;2.58;;;21.30;69.40;;;;;;5077212;28;20048;-78
2023/10/03 06:32:41;;;;;;;4.90;2.60;;;21.20;69.40;;;;;;5082232;28;20299;-78
2023/10/03 06:35:09;;;;;;;2.75;2.53;;;21.30;69.90;;;;;;5075014;28;20491;-79
2023/10/03 06:37:35;;;;;;;4.03;2.53;;;21.30;70.00;;;;;;5080288;28;20568;-80
2023/10/03 06:40:01;;;;;;;2.65;2.45;;;21.00;69.80;;;;;;5099578;28;20128;-79
2023/10/03 06:42:27;;;;;;;2.88;2.58;;;20.50;70.80;;;;;;5044839;28;20048;-80
2023/10/03 06:44:52;;;;;;;4.03;2.97;;;20.40;71.40;;;;;;5052184;28;20050;-80
2023/10/03 06:47:20;;;;;;;4.45;3.20;;;20.30;71.90;;;;;;5069619;28;20049;-81
2023/10/03 06:49:46;;;;;;;3.08;2.88;;;20.10;72.60;;;;;;5064829;28;20131;-81
2023/10/03 06:52:11;;;;;;;3.67;2.78;;;20.10;72.30;;;;;;5074478;28;20044;-81
2023/10/03 06:54:38;;;;;;;3.10;2.80;;;19.90;73.00;;;;;;5069160;28;20055;-80
2023/10/03 06:57:04;;;;;;;3.55;3.15;;;19.90;73.30;;;;;;5072882;28;20048;-80
2023/10/03 06:59:30;;;;;;;2.95;2.60;;;19.80;74.00;;;;;;5055154;28;20051;-80
2023/10/03 07:01:56;;;;;;;4.72;2.97;;;19.70;73.80;;;;;;5093041;28;20029;-80
2023/10/03 07:04:21;;;;;;;3.70;2.70;;;19.70;74.10;;;;;;5070524;28;20036;-79
2023/10/03 07:06:50;;;;;;;4.53;3.28;;;19.70;74.80;;;;;;5046056;28;20040;-80
2023/10/03 07:09:17;;;;;;;3.33;2.47;;;19.60;74.30;;;;;;5051819;28;20073;-78
2023/10/03 07:11:42;;;;;;;3.03;2.83;;;19.50;75.40;;;;;;5082338;28;20052;-79
2023/10/03 07:14:12;;;;;;;3.00;2.70;;;19.50;74.80;;;;;;5080685;28;20105;-79
2023/10/03 07:16:38;;;;;;;3.80;2.60;;;19.50;74.80;;;;;;5055001;28;20049;-80
2023/10/03 07:19:04;;;;;;;3.17;2.58;;;19.40;74.90;;;;;;5063061;28;20052;-78
2023/10/03 07:21:30;;;;;;;4.13;2.85;;;19.40;75.00;;;;;;5063471;28;20686;-78
2023/10/03 07:23:56;;;;;;;2.60;2.40;;;19.40;75.20;;;;;;5086485;28;20188;-79
2023/10/03 07:26:22;;;;;;;3.60;2.95;;;19.40;75.20;;;;;;5071484;28;20040;-77
2023/10/03 07:28:47;;;;;;;4.93;3.08;;;19.50;75.00;;;;;;5094790;28;20035;-77
2023/10/03 07:31:14;;;;;;;2.85;2.65;;;19.50;74.80;;;;;;5092359;28;20181;-77
2023/10/03 07:33:43;;;;;;;5.03;3.15;;;19.40;75.00;;;;;;5078090;28;20039;-78
2023/10/03 07:36:09;;;;;;;3.55;2.88;;;19.40;76.00;;;;;;5094716;28;20040;-77
2023/10/03 07:38:35;;;;;;;3.83;2.67;;;19.50;74.10;;;;;;5091660;28;20039;-78
2023/10/03 07:41:05;;;;;;;3.00;2.20;;;19.50;74.60;;;;;;5080004;28;20072;-77
2023/10/03 07:43:31;;;;;;;2.50;2.30;;;19.60;74.20;;;;;;5078795;28;20040;-77
2023/10/03 07:45:56;;;;;;;3.05;2.58;;;19.80;73.70;;;;;;5083701;28;20088;-77
2023/10/03 07:48:22;;;;;;;2.70;2.22;;;20.00;72.80;;;;;;5074707;28;20048;-77
2023/10/03 07:50:47;;;;;;;4.60;2.67;;;20.20;72.30;;;;;;5083062;28;20051;-79
2023/10/03 07:53:13;;;;;;;3.60;2.60;;;20.30;71.70;;;;;;5073901;28;20421;-77
2023/10/03 07:55:39;;;;;;;2.38;2.17;;;20.30;71.50;;;;;;5076312;28;20051;-76
2023/10/03 07:58:05;;;;;;;2.38;2.17;;;20.30;71.50;;;;;;5091733;28;20050;-79
2023/10/03 08:00:31;;;;;;;3.33;2.42;;;20.20;71.60;;;;;;5063409;28;20122;-77
2023/10/03 08:02:57;;;;;;;3.72;2.35;;;20.20;71.70;;;;;;5083838;28;20413;-76
2023/10/03 08:05:27;;;;;;;2.55;2.28;;;20.30;71.40;;;;;;5081126;28;20052;-77
2023/10/03 08:07:54;;;;;;;2.65;2.45;;;20.30;71.30;;;;;;5089353;28;20134;-78
2023/10/03 08:10:19;;;;;;;1.90;1.80;;;20.30;71.30;;;;;;5054362;28;20043;-78
2023/10/03 08:12:47;;;;;;;1.80;1.70;;;20.30;71.20;;;;;;5071381;28;20034;-78
2023/10/03 08:15:19;;;;;;;1.95;1.75;;;20.30;71.10;;;;;;5073585;28;20063;-76
2023/10/03 08:17:48;;;;;;;2.55;1.95;;;20.30;71.00;;;;;;5080497;28;20124;-77
2023/10/03 08:20:15;;;;;;;2.05;1.85;;;20.30;71.10;;;;;;5081972;28;20509;-77
2023/10/03 08:22:41;;;;;;;2.35;2.00;;;20.30;71.00;;;;;;5079190;28;20043;-77
2023/10/03 08:25:11;;;;;;;1.73;1.63;;;20.40;70.90;;;;;;5038492;28;20593;-79
2023/10/03 08:27:37;;;;;;;1.60;1.50;;;20.40;71.20;;;;;;5065815;28;20412;-78
2023/10/03 08:30:05;;;;;;;1.80;1.70;;;20.40;70.90;;;;;;5081152;28;20036;-78
2023/10/03 08:32:31;;;;;;;1.13;1.02;;;20.40;70.90;;;;;;5083416;28;20047;-78
2023/10/03 08:34:57;;;;;;;1.75;1.55;;;20.50;70.50;;;;;;5067341;28;20041;-76
2023/10/03 08:37:22;;;;;;;1.38;1.27;;;20.30;70.70;;;;;;5068708;28;20045;-76
2023/10/03 08:39:49;;;;;;;1.30;1.05;;;20.30;70.70;;;;;;5085877;28;20048;-77
2023/10/03 08:42:36;;;;;;;1.48;1.20;;;20.30;70.70;;;;;;5080824;28;20048;-78
2023/10/03 08:45:22;;;;;;;0.80;0.80;;;20.30;70.50;;;;;;5085026;28;20039;-77
2023/10/03 08:47:50;;;;;;;0.75;0.73;;;20.50;70.20;;;;;;5092404;28;20113;-77
2023/10/03 08:50:34;;;;;;;2.47;0.77;;;20.50;70.00;;;;;;5082695;28;20102;-77
2023/10/03 08:53:12;;;;;;;1.60;0.90;;;20.50;69.90;;;;;;4710368;28;10000135;-77
2023/10/03 08:55:48;;;;;;;0.77;0.70;;;20.50;70.10;;;;;;5065055;28;20530;-76
2023/10/03 08:58:15;;;;;;;0.50;0.50;;;20.60;67.80;;;;;;5084970;28;20040;-76
2023/10/03 09:00:49;;;;;;;0.70;0.70;;;20.60;66.70;;;;;;5091071;28;20053;-77
2023/10/03 09:03:15;;;;;;;;;;;20.50;65.90;;;;;;5070619;28;20093;-77
2023/10/03 09:05:41;;;;;;;0.75;0.50;;;20.50;66.10;;;;;;5086519;28;19916;-78
2023/10/03 09:08:11;;;;;;;1.00;0.60;;;20.50;65.90;;;;;;5080845;28;20047;-78
2023/10/03 09:10:53;;;;;;;0.73;0.40;;;20.50;65.80;;;;;;5074338;28;20177;-77
2023/10/03 09:13:26;;;;;;;0.70;0.65;;;20.60;65.60;;;;;;5082296;28;20473;-78
2023/10/03 09:16:07;;;;;;;1.15;0.73;;;20.60;65.30;;;;;;5085938;28;20108;-77
2023/10/03 09:18:42;;;;;;;0.52;0.50;;;20.50;65.10;;;;;;5083720;28;20048;-78
2023/10/03 09:21:14;;;;;;;0.70;0.40;;;20.60;64.60;;;;;;5083967;28;20574;-77
2023/10/03 09:24:09;;;;;;;1.33;0.60;;;20.70;63.60;;;;;;5080676;28;20513;-78
2023/10/03 09:26:51;;;;;;;1.95;0.70;;;20.70;62.70;;;;;;5088860;28;20039;-78
2023/10/03 09:29:30;;;;;;;0.75;0.70;;;20.60;62.80;;;;;;5087309;28;20162;-77
2023/10/03 09:31:57;;;;;;;1.60;0.90;;;20.60;63.40;;;;;;5100624;27;20117;-77
2023/10/03 09:34:32;;;;;;;0.85;0.60;;;20.70;63.10;;;;;;5093140;28;20058;-77
2023/10/03 09:37:02;;;;;;;0.70;0.55;;;20.70;63.20;;;;;;5068848;28;20048;-77
2023/10/03 09:39:47;;;;;;;0.60;0.60;;;20.70;63.20;;;;;;5078031;28;20040;-77
2023/10/03 09:42:16;;;;;;;0.75;0.75;;;20.80;62.90;;;;;;5091019;28;20044;-76
2023/10/03 09:44:48;;;;;;;1.17;0.70;;;20.80;62.60;;;;;;5092908;28;20480;-78
2023/10/03 09:47:17;;;;;;;1.08;0.70;;;20.70;62.20;;;;;;5073880;28;20075;-77
2023/10/03 09:49:43;;;;;;;1.60;0.77;;;20.80;62.20;;;;;;5099621;28;20390;-78
2023/10/03 09:52:26;;;;;;;1.52;0.60;;;20.80;61.60;;;;;;5054447;28;20050;-78
2023/10/03 09:54:59;;;;;;;2.28;0.90;;;20.80;61.50;;;;;;5092311;28;20075;-76
2023/10/03 09:57:28;;;;;;;2.10;0.67;;;20.80;61.30;;;;;;5091176;28;20051;-77
2023/10/03 09:59:53;;;;;;;2.38;1.33;;;20.90;61.10;;;;;;5090907;28;20109;-77
2023/10/03 10:02:30;;;;;;;0.82;0.60;;;20.90;60.70;;;;;;5083831;28;20417;-77
2023/10/03 10:05:00;;;;;;;0.75;0.57;;;20.90;60.80;;;;;;5066823;28;20032;-79
2023/10/03 10:07:50;;;;;;;2.15;1.15;;;21.00;61.20;;;;;;5088138;28;20105;-80
2023/10/03 10:10:19;;;;;;;1.40;0.73;;;21.00;61.50;;;;;;5055285;28;20126;-78
2023/10/03 10:13:04;;;;;;;1.27;0.80;;;21.00;61.50;;;;;;5074234;28;20040;-78
2023/10/03 10:15:31;;;;;;;1.17;0.88;;;21.00;60.70;;;;;;5088562;28;20043;-79
2023/10/03 10:17:57;;;;;;;2.03;0.90;;;21.00;60.50;;;;;;5071492;28;20405;-77
2023/10/03 10:20:38;;;;;;;1.00;0.50;;;21.00;60.50;;;;;;5088329;28;20037;-78
2023/10/03 10:23:13;;;;;;;1.30;0.60;;;21.00;61.00;;;;;;5087665;28;20609;-82
2023/10/03 10:25:43;;;;;;;2.20;0.80;;;21.00;61.30;;;;;;5098992;28;20040;-82
2023/10/03 10:28:20;;;;;;;1.00;0.70;;;21.10;61.10;;;;;;5086697;28;20050;-82
2023/10/03 10:31:10;;;;;;;1.00;0.60;;;21.10;60.20;;;;;;4733381;28;10000402;-82
2023/10/03 10:33:36;;;;;;;1.00;0.80;;;21.10;60.20;;;;;;5086135;27;20065;-81
2023/10/03 10:36:10;;;;;;;0.85;0.70;;;21.10;60.50;;;;;;5040740;28;20564;-81
2023/10/03 10:38:35;;;;;;;3.08;0.70;;;21.10;61.90;;;;;;5079933;28;20406;-82
2023/10/03 10:41:17;;;;;;;0.82;0.70;;;21.20;60.60;;;;;;5082091;28;20047;-82
2023/10/03 10:44:15;;;;;;;1.13;0.70;;;21.10;60.80;;;;;;5081942;28;20158;-82
2023/10/03 10:46:46;;;;;;;1.00;0.90;;;21.10;60.80;;;;;;5109884;28;20537;-83
2023/10/03 10:49:40;;;;;;;3.70;0.70;;;21.10;60.60;;;;;;5076171;28;20461;-83
2023/10/03 10:52:09;;;;;;;1.50;0.73;;;21.10;61.70;;;;;;5093329;28;20104;-83
2023/10/03 10:54:38;;;;;;;1.00;0.75;;;21.20;61.60;;;;;;5095009;28;20122;-83
2023/10/03 10:57:05;;;;;;;2.13;0.73;;;21.30;61.70;;;;;;5087022;28;20051;-83
2023/10/03 10:59:40;;;;;;;0.80;0.65;;;21.40;61.70;;;;;;5095601;28;20406;-80
2023/10/03 11:02:18;;;;;;;0.98;0.82;;;21.40;62.10;;;;;;5096067;28;20043;-80
2023/10/03 11:04:44;;;;;;;0.80;0.70;;;21.40;62.60;;;;;;5098765;28;20055;-81
2023/10/03 11:07:18;;;;;;;0.77;0.63;;;21.40;62.90;;;;;;5088524;28;20040;-81
2023/10/03 11:09:44;;;;;;;0.60;0.60;;;21.50;63.20;;;;;;5088945;28;20035;-85
2023/10/03 11:12:09;;;;;;;1.90;0.88;;;21.50;63.50;;;;;;5094116;28;20032;-86
2023/10/03 11:14:35;;;;;;;0.73;0.63;;;21.50;64.40;;;;;;4736569;28;10000333;-80
2023/10/03 11:17:01;;;;;;;0.82;0.70;;;21.60;63.90;;;;;;5095162;28;20417;-80
2023/10/03 11:19:30;;;;;;;0.90;0.65;;;21.60;64.00;;;;;;5104323;28;20267;-81
2023/10/03 11:21:55;;;;;;;0.70;0.50;;;21.60;64.30;;;;;;5082363;28;20402;-80
2023/10/03 11:24:22;;;;;;;1.00;0.70;;;21.60;64.60;;;;;;5086734;28;20517;-81
2023/10/03 11:26:51;;;;;;;1.70;0.60;;;21.60;64.80;;;;;;5087990;28;20059;-80
2023/10/03 11:29:37;;;;;;;0.77;0.73;;;21.60;65.10;;;;;;5100548;28;20055;-81
2023/10/03 11:32:03;;;;;;;0.75;0.75;;;21.70;65.30;;;;;;5077112;28;20484;-82
2023/10/03 11:34:34;;;;;;;2.40;0.70;;;21.70;65.40;;;;;;5091481;28;20459;-82
2023/10/03 11:37:02;;;;;;;0.73;0.63;;;21.70;65.40;;;;;;5085375;28;20046;-82
2023/10/03 11:39:28;;;;;;;1.38;0.85;;;21.70;65.60;;;;;;5082487;28;20557;-82
2023/10/03 11:41:54;;;;;;;1.98;0.73;;;21.70;65.70;;;;;;5087932;28;20032;-81
2023/10/03 11:44:20;;;;;;;0.98;0.70;;;21.70;65.80;;;;;;5089318;28;20845;-82
2023/10/03 11:46:46;;;;;;;0.85;0.77;;;21.80;65.90;;;;;;5068051;28;20093;-83
2023/10/03 11:49:13;;;;;;;0.93;0.82;;;21.80;66.00;;;;;;5086138;28;20044;-81
2023/10/03 11:51:42;;;;;;;0.60;0.60;;;21.80;66.30;;;;;;5074163;28;20050;-81
2023/10/03 11:54:08;;;;;;;1.45;1.00;;;21.80;66.40;;;;;;5084304;28;20310;-79
2023/10/03 11:56:54;;;;;;;0.73;0.60;;;21.80;66.40;;;;;;5089348;28;20038;-82
2023/10/03 11:59:19;;;;;;;1.95;0.60;;;21.80;66.50;;;;;;5074561;28;20055;-79
2023/10/03 12:01:48;;;;;;;2.25;0.68;;;21.90;66.60;;;;;;5096217;28;20048;-77
2023/10/03 12:04:15;;;;;;;0.65;0.47;;;21.90;66.80;;;;;;5085245;28;20047;-77
2023/10/03 12:06:41;;;;;;;1.80;0.68;;;21.90;66.90;;;;;;5088485;28;20051;-78
2023/10/03 12:09:09;;;;;;;0.50;0.50;;;21.90;67.10;;;;;;5068543;28;20057;-79
2023/10/03 12:11:40;;;;;;;0.95;0.70;;;21.80;67.20;;;;;;5086642;28;20140;-79
2023/10/03 12:14:06;;;;;;;0.93;0.70;;;21.90;67.40;;;;;;5089062;28;20055;-81
2023/10/03 12:16:32;;;;;;;0.60;0.52;;;21.90;67.40;;;;;;5085389;28;20056;-82
2023/10/03 12:18:57;;;;;;;1.77;0.60;;;21.90;67.40;;;;;;5082336;28;20044;-81
2023/10/03 12:21:23;;;;;;;0.60;0.60;;;21.90;67.40;;;;;;5090695;28;20135;-80
2023/10/03 12:23:49;;;;;;;0.90;0.70;;;21.90;67.50;;;;;;5065642;28;20588;-80
2023/10/03 12:26:15;;;;;;;0.68;0.68;;;21.90;67.50;;;;;;5080795;28;20068;-80
2023/10/03 12:28:41;;;;;;;1.15;0.80;;;21.90;67.60;;;;;;5084635;28;20044;-78
2023/10/03 12:31:06;;;;;;;0.82;0.70;;;21.90;67.70;;;;;;5077344;28;20046;-79
2023/10/03 12:33:32;;;;;;;0.98;0.50;;;21.90;67.80;;;;;;5082854;28;20484;-80
2023/10/03 12:36:01;;;;;;;0.70;0.40;;;21.90;67.90;;;;;;5086891;28;20051;-79
2023/10/03 12:38:27;;;;;;;3.22;0.70;;;22.00;68.00;;;;;;5085634;28;20062;-80
2023/10/03 12:40:53;;;;;;;1.10;0.60;;;22.00;68.00;;;;;;5093424;28;20051;-80
2023/10/03 12:43:19;;;;;;;0.73;0.73;;;22.00;68.10;;;;;;5083500;28;20513;-81
2023/10/03 12:45:45;;;;;;;0.55;0.40;;;22.00;68.20;;;;;;5081958;28;20126;-79
2023/10/03 12:48:10;;;;;;;0.43;0.40;;;22.00;68.20;;;;;;5084049;28;20036;-80
2023/10/03 12:50:36;;;;;;;0.60;0.47;;;22.00;68.20;;;;;;5071354;28;20116;-81
2023/10/03 12:53:02;;;;;;;0.30;0.30;;;22.00;68.20;;;;;;5070608;28;20118;-79
2023/10/03 12:55:28;;;;;;;0.40;0.40;;;22.00;68.30;;;;;;5086099;28;20058;-80
2023/10/03 12:57:59;;;;;;;0.40;0.40;;;22.00;68.30;;;;;;5066003;28;20233;-81